Time;durP1;ratioP1;P1;durP2;ratioP2;P2;SDS_P1;SDS_P2;PMS_P1;PMS_P2;Temp;Humidity;BMP_temperature;BMP_pressure;BME280_temperature;BME280_humidity;BME280_pressure;Samples;Min_cycle;Max_cycle;Signal;HPM_P1;HPM_P2
2022/08/08 00:00:50;;;;;;;0.73;0.73;;;14.30;58.80;14.20;101310.00;;;;5013365;27;88969;-63
2022/08/08 00:03:24;;;;;;;0.87;0.60;;;14.20;59.00;14.10;101305.00;;;;5011883;27;107872;-63
2022/08/08 00:06:35;;;;;;;2.07;1.00;;;14.10;59.20;14.00;101307.00;;;;5014114;27;87587;-63
2022/08/08 00:09:24;;;;;;;0.87;0.87;;;14.00;59.40;13.90;101313.00;;;;4989529;27;87798;-63
2022/08/08 00:11:59;;;;;;;1.13;0.90;;;13.90;59.50;13.90;101312.00;;;;5014932;27;89033;-63
2022/08/08 00:14:58;;;;;;;1.37;0.80;;;13.80;59.70;13.80;101311.00;;;;4995657;27;89772;-64
2022/08/08 00:17:49;;;;;;;0.90;0.60;;;13.80;60.00;13.70;101308.00;;;;4996038;27;87905;-63
2022/08/08 00:20:25;;;;;;;0.93;0.93;;;13.70;60.10;13.70;101308.00;;;;4995309;27;87009;-63
2022/08/08 00:22:55;;;;;;;1.10;0.80;;;13.70;60.30;13.60;101306.00;;;;5025446;27;109973;-63
2022/08/08 00:25:51;;;;;;;1.63;1.00;;;13.60;60.60;13.60;101294.00;;;;5008998;27;111165;-63
2022/08/08 00:28:26;;;;;;;1.50;1.00;;;13.60;61.00;13.60;101307.00;;;;5010070;27;88882;-63
2022/08/08 00:30:55;;;;;;;0.70;0.70;;;13.50;61.20;13.50;101296.00;;;;4995540;28;87967;-63
2022/08/08 00:33:29;;;;;;;1.33;0.87;;;13.50;61.20;13.50;101295.00;;;;5010744;27;118716;-63
2022/08/08 00:36:26;;;;;;;0.63;0.63;;;13.50;61.40;13.40;101299.00;;;;5009781;27;96153;-63
2022/08/08 00:39:10;;;;;;;1.03;0.60;;;13.40;61.50;13.40;101298.00;;;;5016437;27;87770;-63
2022/08/08 00:42:13;;;;;;;1.30;0.97;;;13.40;61.60;13.30;101292.00;;;;5002046;27;87732;-63
2022/08/08 00:45:13;;;;;;;0.77;0.77;;;13.40;61.80;13.30;101300.00;;;;5002642;27;88270;-63
2022/08/08 00:48:09;;;;;;;1.53;1.07;;;13.30;61.90;13.20;101302.00;;;;5001069;27;88772;-64
2022/08/08 00:51:13;;;;;;;0.63;0.53;;;13.30;62.10;13.20;101304.00;;;;4984500;28;97645;-64
2022/08/08 00:54:18;;;;;;;1.27;1.17;;;13.20;62.40;13.10;101294.00;;;;5007051;27;88108;-63
2022/08/08 00:57:16;;;;;;;1.33;0.90;;;13.10;62.50;13.00;101300.00;;;;5006406;27;88926;-63
2022/08/08 01:00:07;;;;;;;1.50;0.90;;;13.10;62.70;13.00;101299.00;;;;5019777;27;89039;-63
2022/08/08 01:03:28;;;;;;;0.50;0.50;;;13.00;62.80;12.90;101295.00;;;;5022347;27;87817;-63
2022/08/08 01:06:27;;;;;;;0.77;0.77;;;13.00;63.10;12.90;101296.00;;;;5000758;27;89199;-63
2022/08/08 01:09:26;;;;;;;1.70;0.90;;;12.80;63.10;12.80;101297.00;;;;5015539;27;101853;-63
2022/08/08 01:12:25;;;;;;;0.70;0.70;;;12.80;63.70;12.80;101289.00;;;;5011301;27;87810;-63
2022/08/08 01:15:19;;;;;;;1.70;0.60;;;12.80;63.80;12.70;101293.00;;;;5022127;27;87803;-63
2022/08/08 01:18:22;;;;;;;1.07;0.93;;;12.70;64.00;12.70;101290.00;;;;5008001;27;87114;-63
2022/08/08 01:21:34;;;;;;;0.60;0.60;;;12.70;64.30;12.60;101297.00;;;;5002149;27;89518;-63
2022/08/08 01:24:39;;;;;;;1.40;1.27;;;12.70;64.50;12.50;101301.00;;;;4994672;27;88092;-63
2022/08/08 01:27:51;;;;;;;2.10;1.43;;;12.60;64.90;12.50;101309.00;;;;5019528;27;88735;-63
2022/08/08 01:31:11;;;;;;;1.23;1.13;;;12.50;65.00;12.40;101307.00;;;;5020889;27;87885;-63
2022/08/08 01:34:27;;;;;;;1.27;1.17;;;12.50;65.30;12.40;101308.00;;;;4998460;28;110811;-63
2022/08/08 01:37:50;;;;;;;1.10;1.00;;;12.40;65.60;12.30;101304.00;;;;5005121;27;107655;-63
2022/08/08 01:40:51;;;;;;;1.40;0.80;;;12.40;65.80;12.20;101310.00;;;;5019364;27;88090;-63
2022/08/08 01:43:41;;;;;;;3.37;1.13;;;12.30;66.10;12.20;101301.00;;;;5018264;27;102428;-63
2022/08/08 01:46:37;;;;;;;0.93;0.80;;;12.30;66.40;12.20;101306.00;;;;5018715;27;110576;-63
2022/08/08 01:49:48;;;;;;;0.70;0.70;;;12.30;66.90;12.20;101301.00;;;;5002210;27;109383;-63
2022/08/08 01:52:33;;;;;;;1.00;0.87;;;12.20;67.20;12.10;101306.00;;;;4984855;27;88109;-63
2022/08/08 01:55:45;;;;;;;1.30;1.20;;;12.20;67.50;12.10;101306.00;;;;5030045;27;101800;-63
2022/08/08 01:59:01;;;;;;;1.07;0.80;;;12.10;67.80;12.00;101301.00;;;;4997445;27;89942;-63
2022/08/08 02:02:24;;;;;;;1.07;0.83;;;12.10;68.10;12.00;101291.00;;;;5018347;27;94175;-63
2022/08/08 02:05:30;;;;;;;1.80;0.90;;;12.00;68.50;11.90;101301.00;;;;5018306;27;87748;-63
2022/08/08 02:08:19;;;;;;;0.70;0.70;;;12.00;68.70;11.90;101297.00;;;;5015622;27;87783;-63
2022/08/08 02:11:04;;;;;;;1.30;1.17;;;12.00;68.90;11.90;101292.00;;;;5013743;27;89288;-63
2022/08/08 02:13:54;;;;;;;1.27;1.10;;;11.90;69.40;11.90;101298.00;;;;5015567;27;88157;-63
2022/08/08 02:16:33;;;;;;;1.20;1.00;;;11.90;69.80;11.90;101297.00;;;;5016220;27;89295;-63
2022/08/08 02:19:24;;;;;;;1.30;1.20;;;11.90;70.20;11.80;101300.00;;;;5015969;27;87050;-63
2022/08/08 02:22:32;;;;;;;1.33;1.20;;;11.90;70.80;11.70;101293.00;;;;5015501;27;88881;-63
2022/08/08 02:25:21;;;;;;;1.10;1.00;;;11.80;71.40;11.60;101295.00;;;;5015375;27;88135;-63
2022/08/08 02:28:05;;;;;;;0.77;0.77;;;11.80;71.80;11.60;101300.00;;;;5012778;27;96487;-63
2022/08/08 02:31:01;;;;;;;0.73;0.73;;;11.60;72.10;11.50;101297.00;;;;5011212;27;87824;-63
2022/08/08 02:33:47;;;;;;;1.00;0.87;;;11.50;72.90;11.40;101300.00;;;;4997224;28;88705;-63
2022/08/08 02:36:46;;;;;;;1.80;0.93;;;11.50;73.10;11.30;101303.00;;;;4997917;27;107949;-63
2022/08/08 02:39:36;;;;;;;2.07;1.33;;;11.40;73.40;11.20;101299.00;;;;5017560;27;87615;-63
2022/08/08 02:42:36;;;;;;;1.40;0.83;;;11.30;73.80;11.20;101304.00;;;;5008534;27;87838;-63
2022/08/08 02:45:33;;;;;;;1.10;1.00;;;11.20;74.00;11.10;101305.00;;;;4997631;27;87702;-62
2022/08/08 02:48:49;;;;;;;1.57;1.03;;;11.20;74.40;11.10;101309.00;;;;4997298;27;87924;-63
2022/08/08 02:51:36;;;;;;;1.20;1.10;;;11.10;74.60;11.10;101308.00;;;;4998601;27;87858;-63
2022/08/08 02:54:38;;;;;;;0.90;0.90;;;11.20;75.50;10.90;101305.00;;;;5006833;27;87904;-63
2022/08/08 02:58:00;;;;;;;1.47;1.07;;;11.00;75.90;10.80;101305.00;;;;4995648;27;96139;-63
2022/08/08 03:01:12;;;;;;;3.37;0.90;;;10.90;76.20;10.80;101312.00;;;;4997499;27;89346;-63
2022/08/08 03:04:44;;;;;;;1.13;0.70;;;10.90;77.00;10.70;101299.00;;;;5018321;27;87845;-63
2022/08/08 03:07:31;;;;;;;1.33;0.90;;;10.80;77.60;10.60;101302.00;;;;5016157;27;87900;-63
2022/08/08 03:10:37;;;;;;;0.67;0.67;;;10.70;77.80;10.60;101307.00;;;;5008682;27;88476;-63
2022/08/08 03:13:36;;;;;;;1.30;1.20;;;10.70;78.30;10.60;101306.00;;;;5012532;27;87916;-62
2022/08/08 03:16:46;;;;;;;1.17;1.07;;;10.70;78.60;10.60;101313.00;;;;5014340;27;102421;-63
2022/08/08 03:19:37;;;;;;;1.63;1.17;;;10.70;78.90;10.70;101305.00;;;;5000821;27;92524;-62
2022/08/08 03:22:02;;;;;;;0.90;0.90;;;10.60;79.00;10.70;101321.00;;;;5015058;27;88121;-63
2022/08/08 03:24:28;;;;;;;1.30;1.13;;;10.70;79.20;10.60;101307.00;;;;5016102;27;116986;-63
2022/08/08 03:27:33;;;;;;;1.10;1.03;;;10.70;79.40;10.60;101317.00;;;;5015192;27;88753;-63
2022/08/08 03:30:09;;;;;;;1.67;0.90;;;10.70;79.90;10.60;101311.00;;;;4994939;27;88224;-63
2022/08/08 03:35:22;;;;;;;1.23;1.03;;;10.60;80.50;10.60;101313.00;;;;5013984;27;87671;-63
2022/08/08 03:37:48;;;;;;;0.90;0.80;;;10.60;80.90;10.50;101310.00;;;;5016948;27;87875;-63
2022/08/08 03:40:16;;;;;;;1.17;1.07;;;10.60;81.00;10.50;101321.00;;;;5014926;27;87684;-63
2022/08/08 03:42:42;;;;;;;1.00;1.00;;;10.50;81.20;10.50;101316.00;;;;5016056;27;88953;-63
2022/08/08 03:45:28;;;;;;;1.07;1.00;;;10.50;81.70;10.50;101327.00;;;;5015566;27;87210;-63
2022/08/08 03:48:07;;;;;;;1.67;0.90;;;10.50;82.00;10.40;101328.00;;;;5009875;27;87828;-63
2022/08/08 03:50:39;;;;;;;1.20;1.13;;;10.50;82.30;10.40;101331.00;;;;5013002;27;87821;-63
2022/08/08 03:53:11;;;;;;;2.83;1.23;;;10.40;82.30;10.40;101333.00;;;;5014859;27;102769;-63
2022/08/08 03:55:48;;;;;;;1.20;1.10;;;10.40;82.60;10.40;101339.00;;;;5008624;27;88709;-63
2022/08/08 03:58:23;;;;;;;1.00;1.00;;;10.40;82.90;10.40;101341.00;;;;4997031;27;87635;-63
2022/08/08 04:00:54;;;;;;;0.97;0.80;;;10.40;83.00;10.40;101344.00;;;;5013510;27;87641;-63
2022/08/08 04:03:21;;;;;;;1.53;1.23;;;10.40;83.10;10.40;101342.00;;;;5015693;27;87635;-63
2022/08/08 04:05:47;;;;;;;1.30;1.10;;;10.40;83.10;10.50;101342.00;;;;5015268;27;87643;-63
2022/08/08 04:08:22;;;;;;;1.23;1.10;;;10.50;83.30;10.50;101346.00;;;;4999078;27;87721;-63
2022/08/08 04:10:50;;;;;;;1.30;1.20;;;10.50;83.80;10.50;101343.00;;;;5014422;27;87232;-63
2022/08/08 04:13:17;;;;;;;1.13;0.83;;;10.50;83.80;10.60;101346.00;;;;5013711;27;90232;-63
2022/08/08 04:15:43;;;;;;;1.50;0.90;;;10.60;84.00;10.60;101350.00;;;;4999425;27;88852;-63
2022/08/08 04:18:09;;;;;;;1.70;1.00;;;10.60;84.10;10.70;101348.00;;;;4995739;28;88806;-63
2022/08/08 04:20:35;;;;;;;2.20;1.10;;;10.70;84.10;10.80;101349.00;;;;4998332;27;87788;-63
2022/08/08 04:23:01;;;;;;;1.40;1.27;;;10.70;84.50;10.90;101350.00;;;;5012177;27;117731;-63
2022/08/08 04:25:27;;;;;;;2.87;1.17;;;10.90;84.70;11.00;101343.00;;;;5010382;27;90057;-63
2022/08/08 04:27:52;;;;;;;1.63;1.53;;;10.90;84.60;11.10;101352.00;;;;4995904;27;110581;-63
2022/08/08 04:30:18;;;;;;;1.00;1.00;;;11.10;84.90;11.20;101355.00;;;;5007121;27;108914;-63
2022/08/08 04:32:44;;;;;;;0.50;0.50;;;11.10;84.80;11.30;101345.00;;;;5014831;27;118528;-63
2022/08/08 04:35:09;;;;;;;1.60;1.30;;;11.20;85.00;11.30;101361.00;;;;5013012;27;117700;-63
2022/08/08 04:37:35;;;;;;;2.53;0.97;;;11.30;85.00;11.40;101362.00;;;;5014064;27;111254;-63
2022/08/08 04:40:02;;;;;;;1.27;1.20;;;11.40;85.20;11.50;101360.00;;;;5004701;27;107904;-63
2022/08/08 04:42:30;;;;;;;1.63;1.33;;;11.40;85.60;11.50;101364.00;;;;4995403;28;88820;-63
2022/08/08 04:44:56;;;;;;;12.37;1.67;;;11.50;85.20;11.60;101363.00;;;;4996202;27;89525;-63
2022/08/08 04:47:22;;;;;;;1.30;1.00;;;11.60;85.20;11.70;101377.00;;;;4995405;28;87927;-63
2022/08/08 04:49:48;;;;;;;2.43;1.73;;;11.70;85.20;11.80;101373.00;;;;5009064;27;108810;-63
2022/08/08 04:52:14;;;;;;;2.20;1.43;;;11.80;85.40;11.90;101368.00;;;;5000407;27;88169;-63
2022/08/08 04:54:39;;;;;;;1.80;1.53;;;11.90;85.40;12.00;101376.00;;;;5008641;27;118555;-63
2022/08/08 04:57:05;;;;;;;1.70;1.20;;;12.00;85.40;12.10;101369.00;;;;4996771;27;108584;-63
2022/08/08 04:59:31;;;;;;;1.17;0.97;;;12.10;85.40;12.20;101376.00;;;;4991600;27;109682;-63
2022/08/08 05:01:56;;;;;;;1.37;1.27;;;12.20;85.20;12.40;101378.00;;;;4992282;27;117913;-63
2022/08/08 05:04:22;;;;;;;2.47;1.70;;;12.30;85.30;12.60;101372.00;;;;4991519;27;118640;-63
2022/08/08 05:06:48;;;;;;;3.47;1.93;;;12.50;85.60;12.70;101366.00;;;;4989913;27;110372;-63
2022/08/08 05:09:14;;;;;;;2.07;1.50;;;12.60;85.40;12.90;101378.00;;;;4993346;27;108590;-64
2022/08/08 05:11:40;;;;;;;2.70;1.90;;;12.80;85.30;13.10;101379.00;;;;4992498;27;87817;-63
2022/08/08 05:14:08;;;;;;;1.97;1.57;;;13.00;85.20;13.30;101388.00;;;;4994997;27;115663;-64
2022/08/08 05:16:33;;;;;;;3.13;1.77;;;13.10;85.00;13.50;101390.00;;;;4993808;27;87731;-63
2022/08/08 05:18:59;;;;;;;1.10;1.00;;;13.30;85.70;13.70;101389.00;;;;4995066;28;87749;-63
2022/08/08 05:21:25;;;;;;;2.00;1.57;;;13.60;84.70;14.00;101394.00;;;;4995704;27;98093;-63
2022/08/08 05:23:53;;;;;;;1.97;1.17;;;13.80;84.20;14.20;101388.00;;;;5006225;27;113946;-63
2022/08/08 05:26:22;;;;;;;1.43;1.33;;;14.00;83.80;14.40;101397.00;;;;4998545;28;87849;-63
2022/08/08 05:28:48;;;;;;;1.40;1.30;;;14.20;83.30;14.60;101386.00;;;;5009367;27;99473;-63
2022/08/08 05:31:13;;;;;;;2.30;1.67;;;14.50;82.90;14.90;101399.00;;;;5017468;27;89808;-64
2022/08/08 05:33:39;;;;;;;1.60;1.50;;;14.70;82.40;15.10;101394.00;;;;5006938;27;89191;-63
2022/08/08 05:36:08;;;;;;;1.17;1.03;;;14.90;82.60;15.40;101392.00;;;;5006245;27;87902;-63
2022/08/08 05:38:40;;;;;;;3.40;1.10;;;15.20;81.40;15.60;101394.00;;;;5017809;27;87632;-63
2022/08/08 05:41:06;;;;;;;1.40;1.30;;;15.40;80.80;15.90;101397.00;;;;5017758;27;88283;-64
2022/08/08 05:43:34;;;;;;;1.87;1.37;;;15.60;79.90;16.10;101402.00;;;;5007183;27;117513;-63
2022/08/08 05:46:03;;;;;;;1.75;1.13;;;15.90;79.10;16.40;101402.00;;;;4997731;27;87586;-64
2022/08/08 05:48:29;;;;;;;1.60;1.25;;;16.10;78.10;16.60;101416.00;;;;4997629;27;100724;-63
2022/08/08 05:50:55;;;;;;;0.90;0.80;;;16.40;77.40;16.90;101402.00;;;;5012126;27;88830;-63
2022/08/08 05:53:24;;;;;;;2.10;0.93;;;16.60;76.40;17.10;101402.00;;;;5003461;27;116736;-63
2022/08/08 05:55:53;;;;;;;2.60;1.15;;;16.90;75.70;17.40;101406.00;;;;5016900;27;88763;-64
2022/08/08 05:58:26;;;;;;;1.80;1.00;;;17.10;74.70;17.70;101406.00;;;;5014542;27;96244;-64
2022/08/08 06:00:55;;;;;;;0.85;0.80;;;17.40;73.90;17.90;101419.00;;;;5009389;27;88341;-64
2022/08/08 06:03:22;;;;;;;1.27;1.17;;;17.70;73.30;18.20;101411.00;;;;5004637;27;88202;-64
2022/08/08 06:05:58;;;;;;;1.45;1.23;;;18.00;72.50;18.50;101408.00;;;;5017848;27;88099;-64
2022/08/08 06:08:26;;;;;;;1.23;1.08;;;18.20;71.40;18.70;101406.00;;;;5015222;27;87853;-64
2022/08/08 06:10:57;;;;;;;1.42;1.10;;;18.40;70.40;18.90;101423.00;;;;5017688;27;88206;-64
2022/08/08 06:13:25;;;;;;;1.75;1.25;;;18.70;69.50;19.20;101417.00;;;;5013757;27;106525;-64
2022/08/08 06:15:55;;;;;;;0.95;0.95;;;18.90;68.90;19.50;101420.00;;;;4997318;27;87830;-64
2022/08/08 06:18:25;;;;;;;1.88;1.13;;;19.20;67.80;19.70;101432.00;;;;4996975;28;87496;-65
2022/08/08 06:21:00;;;;;;;0.95;0.75;;;19.50;66.70;20.00;101428.00;;;;4995660;28;110492;-64
2022/08/08 06:23:27;;;;;;;0.60;0.60;;;19.70;65.20;20.20;101429.00;;;;5005271;27;89934;-64
2022/08/08 06:26:06;;;;;;;1.27;0.65;;;20.00;64.20;20.50;101424.00;;;;5015065;27;92532;-65
2022/08/08 06:28:37;;;;;;;0.80;0.80;;;20.20;63.20;20.80;101424.00;;;;5017401;27;87923;-64
2022/08/08 06:31:05;;;;;;;1.85;1.08;;;20.50;62.70;21.00;101432.00;;;;5015272;27;92517;-64
2022/08/08 06:33:58;;;;;;;1.50;1.10;;;20.70;61.50;21.20;101433.00;;;;5015662;27;88122;-64
2022/08/08 06:36:42;;;;;;;0.95;0.63;;;21.00;60.10;21.50;101437.00;;;;5013098;27;88129;-64
2022/08/08 06:39:11;;;;;;;0.90;0.57;;;21.20;59.50;21.80;101441.00;;;;5016437;27;87302;-64
2022/08/08 06:41:49;;;;;;;1.10;0.75;;;21.40;59.00;22.10;101436.00;;;;5012610;27;89235;-64
2022/08/08 06:44:17;;;;;;;3.33;0.95;;;21.80;58.50;22.40;101436.00;;;;5009745;27;88663;-64
2022/08/08 06:46:46;;;;;;;1.00;0.90;;;22.00;57.90;22.60;101434.00;;;;5012787;27;88710;-64
2022/08/08 06:49:12;;;;;;;0.68;0.68;;;22.30;57.30;22.90;101440.00;;;;4998231;27;107279;-64
2022/08/08 06:51:38;;;;;;;0.95;0.68;;;22.80;56.90;23.20;101439.00;;;;4995572;27;117478;-64
2022/08/08 06:54:04;;;;;;;1.92;0.82;;;22.80;56.20;23.40;101436.00;;;;5006614;27;117679;-64
2022/08/08 06:56:30;;;;;;;1.85;0.60;;;23.20;55.40;23.70;101438.00;;;;5003151;27;110275;-64
2022/08/08 06:58:56;;;;;;;0.80;0.80;;;23.40;54.70;24.00;101435.00;;;;4996955;27;87758;-64
2022/08/08 07:01:26;;;;;;;0.88;0.65;;;23.70;54.20;24.30;101445.00;;;;4996617;28;88893;-63
2022/08/08 07:03:54;;;;;;;1.75;0.60;;;24.00;53.40;24.50;101440.00;;;;4997521;27;88062;-64
2022/08/08 07:06:24;;;;;;;0.50;0.50;;;24.30;52.00;24.70;101442.00;;;;5012188;27;87685;-63
2022/08/08 07:08:57;;;;;;;0.90;0.63;;;24.40;51.20;25.00;101442.00;;;;4995701;28;98632;-63
2022/08/08 07:11:29;;;;;;;1.70;0.47;;;24.70;50.60;25.20;101432.00;;;;4996859;27;89836;-63
2022/08/08 07:14:00;;;;;;;1.27;0.60;;;24.90;50.10;25.40;101435.00;;;;4996195;27;88078;-64
2022/08/08 07:16:41;;;;;;;0.55;0.52;;;25.10;49.60;25.70;101443.00;;;;4999889;27;87897;-64
2022/08/08 07:19:34;;;;;;;0.60;0.40;;;25.40;49.10;26.00;101443.00;;;;5014065;27;87770;-64
2022/08/08 07:22:06;;;;;;;2.75;1.15;;;25.70;48.60;26.30;101446.00;;;;5013835;27;109725;-64
2022/08/08 07:24:44;;;;;;;0.80;0.60;;;26.00;47.80;26.60;101443.00;;;;5008870;27;87990;-64
2022/08/08 07:27:14;;;;;;;2.03;0.47;;;26.30;47.20;26.90;101441.00;;;;5016039;27;87991;-64
2022/08/08 07:29:39;;;;;;;0.52;0.32;;;26.60;45.00;27.00;101448.00;;;;4992863;28;87115;-65
2022/08/08 07:32:08;;;;;;;1.33;0.68;;;26.60;44.80;27.20;101450.00;;;;4975943;28;89057;-65
2022/08/08 07:34:35;;;;;;;0.52;0.52;;;26.90;44.40;27.30;101449.00;;;;4975845;28;88611;-64
2022/08/08 07:37:04;;;;;;;0.40;0.40;;;27.10;43.50;27.40;101449.00;;;;4982919;28;88691;-64
2022/08/08 07:39:31;;;;;;;0.32;0.32;;;27.20;42.90;27.50;101450.00;;;;4985643;27;88202;-64
2022/08/08 07:41:58;;;;;;;0.68;0.65;;;27.20;42.40;27.70;101458.00;;;;4991608;28;94986;-65
2022/08/08 07:44:24;;;;;;;0.80;0.38;;;27.40;42.20;27.90;101458.00;;;;4996262;28;92341;-64
2022/08/08 07:46:51;;;;;;;0.38;0.38;;;27.60;42.00;28.10;101450.00;;;;4981034;27;87779;-64
2022/08/08 07:49:16;;;;;;;0.40;0.40;;;27.80;41.70;28.30;101452.00;;;;4977375;27;99683;-64
2022/08/08 07:51:43;;;;;;;0.20;0.20;;;28.00;41.30;28.50;101458.00;;;;4974947;28;116455;-64
2022/08/08 07:54:39;;;;;;;0.30;0.22;;;28.20;41.20;28.60;101453.00;;;;4984689;28;116722;-64
2022/08/08 07:57:22;;;;;;;0.50;0.50;;;28.40;40.70;28.80;101456.00;;;;4986534;28;91989;-65
2022/08/08 08:00:08;;;;;;;2.70;0.57;;;28.60;39.40;28.90;101464.00;;;;4975911;28;87783;-65
2022/08/08 08:03:13;;;;;;;0.60;0.35;;;28.70;38.80;29.00;101461.00;;;;4987040;28;88801;-65
2022/08/08 08:05:42;;;;;;;2.60;1.08;;;28.80;38.00;29.10;101463.00;;;;4993063;28;100482;-64
2022/08/08 08:08:36;;;;;;;0.82;0.50;;;28.90;37.90;29.20;101462.00;;;;4979054;27;87808;-65
2022/08/08 08:11:02;;;;;;;0.40;0.30;;;29.00;37.80;29.30;101454.00;;;;4989750;28;102049;-64
2022/08/08 08:13:54;;;;;;;1.35;0.55;;;29.10;36.90;29.40;101454.00;;;;5009649;27;89245;-65
2022/08/08 08:16:28;;;;;;;1.60;0.60;;;29.20;37.10;29.50;101465.00;;;;4985436;28;108929;-64
2022/08/08 08:18:58;;;;;;;0.70;0.63;;;29.30;36.80;29.60;101468.00;;;;4991023;27;87796;-63
2022/08/08 08:21:45;;;;;;;0.20;0.20;;;29.40;36.80;29.70;101467.00;;;;4991718;28;88603;-65
2022/08/08 08:24:12;;;;;;;1.48;0.30;;;29.50;36.80;29.80;101464.00;;;;4975332;28;108442;-65
2022/08/08 08:26:38;;;;;;;0.43;0.35;;;29.60;36.70;29.90;101470.00;;;;4978651;28;90390;-65
2022/08/08 08:29:04;;;;;;;0.25;0.25;;;29.70;36.40;30.10;101471.00;;;;4992619;28;88680;-65
2022/08/08 08:31:30;;;;;;;0.77;0.50;;;29.80;36.20;30.20;101476.00;;;;5010244;27;109303;-65
2022/08/08 08:33:57;;;;;;;0.85;0.63;;;29.90;36.00;30.30;101471.00;;;;4995397;27;88886;-65
2022/08/08 08:36:23;;;;;;;0.38;0.30;;;30.00;35.90;30.50;101478.00;;;;5010852;27;101421;-64
2022/08/08 08:38:50;;;;;;;1.23;0.30;;;30.20;34.70;30.50;101479.00;;;;4994890;27;87796;-64
2022/08/08 08:41:18;;;;;;;1.05;0.95;;;30.20;33.50;30.40;101480.00;;;;4996747;27;87861;-64
2022/08/08 08:43:47;;;;;;;1.13;0.60;;;30.10;33.40;30.30;101474.00;;;;5014687;27;88024;-64
2022/08/08 08:46:13;;;;;;;0.75;0.52;;;30.10;33.10;30.20;101480.00;;;;5015214;27;87865;-65
2022/08/08 08:48:43;;;;;;;1.52;0.30;;;30.00;33.00;30.20;101479.00;;;;4995121;27;105458;-65
2022/08/08 08:51:13;;;;;;;0.55;0.35;;;30.00;32.80;30.20;101476.00;;;;4995848;27;87965;-64
2022/08/08 08:53:50;;;;;;;0.52;0.50;;;29.90;33.10;30.20;101478.00;;;;4999408;27;90176;-65
2022/08/08 08:56:19;;;;;;;0.52;0.47;;;29.90;32.80;30.10;101478.00;;;;5001962;27;88886;-65
2022/08/08 08:58:47;;;;;;;0.88;0.38;;;29.90;32.00;29.80;101477.00;;;;5012189;27;99098;-64
2022/08/08 09:01:19;;;;;;;0.55;0.50;;;29.70;32.00;29.40;101478.00;;;;4998635;27;87904;-64
2022/08/08 09:03:48;;;;;;;0.68;0.47;;;29.30;32.20;29.10;101484.00;;;;4997637;27;100057;-65
2022/08/08 09:06:24;;;;;;;0.63;0.40;;;29.00;32.80;28.80;101479.00;;;;5011141;27;88205;-64
2022/08/08 09:09:01;;;;;;;1.30;0.40;;;28.70;32.80;28.60;101480.00;;;;5015997;27;87688;-64
2022/08/08 09:11:31;;;;;;;0.50;0.50;;;28.40;33.50;28.70;101479.00;;;;5017378;27;87712;-64
2022/08/08 09:13:58;;;;;;;0.65;0.65;;;28.40;34.00;29.00;101479.00;;;;5016195;27;88699;-65
2022/08/08 09:16:24;;;;;;;0.65;0.30;;;28.50;34.00;29.20;101467.00;;;;5007801;27;108182;-65
2022/08/08 09:18:50;;;;;;;0.30;0.15;;;28.70;34.20;29.60;101483.00;;;;4996679;27;111210;-64
2022/08/08 09:21:17;;;;;;;0.73;0.60;;;29.00;34.30;29.90;101483.00;;;;5016117;27;87989;-65
2022/08/08 09:23:43;;;;;;;0.90;0.75;;;29.40;32.80;30.00;101487.00;;;;5014495;27;88345;-65
2022/08/08 09:26:20;;;;;;;0.93;0.60;;;29.50;32.50;29.90;101473.00;;;;5013291;27;118226;-65
2022/08/08 09:28:46;;;;;;;1.27;0.80;;;29.50;31.50;29.90;101485.00;;;;5013108;27;90815;-65
2022/08/08 09:31:32;;;;;;;0.93;0.40;;;29.50;31.70;30.10;101486.00;;;;5006347;27;109782;-65
2022/08/08 09:34:00;;;;;;;0.90;0.57;;;29.60;32.10;30.30;101488.00;;;;5014911;27;111393;-67
2022/08/08 09:36:28;;;;;;;0.40;0.32;;;29.70;31.70;30.20;101492.00;;;;5015954;27;118414;-64
2022/08/08 09:39:04;;;;;;;2.58;0.85;;;29.80;31.60;30.00;101488.00;;;;5017443;27;102533;-65
2022/08/08 09:41:41;;;;;;;1.20;0.38;;;29.70;31.60;29.80;101490.00;;;;5009390;27;87834;-65
2022/08/08 09:44:26;;;;;;;1.20;0.63;;;29.50;31.40;29.50;101482.00;;;;4997249;28;89799;-65
2022/08/08 09:46:54;;;;;;;0.35;0.35;;;29.30;31.80;29.60;101477.00;;;;4997715;28;91205;-64
2022/08/08 09:49:20;;;;;;;1.15;0.63;;;29.20;32.10;29.70;101469.00;;;;4998587;27;87633;-65
2022/08/08 09:51:54;;;;;;;1.02;0.55;;;29.30;31.90;29.90;101477.00;;;;5013375;27;106980;-64
2022/08/08 09:54:34;;;;;;;2.03;0.80;;;29.40;32.00;30.10;101480.00;;;;5028052;27;89110;-65
2022/08/08 09:57:02;;;;;;;0.90;0.65;;;29.60;32.00;30.20;101474.00;;;;5019183;27;91702;-66
2022/08/08 09:59:31;;;;;;;0.40;0.40;;;29.70;32.00;30.30;101480.00;;;;5016907;27;87783;-64
2022/08/08 10:01:59;;;;;;;1.40;0.85;;;29.80;32.10;30.50;101473.00;;;;5003632;27;86924;-66
2022/08/08 10:04:26;;;;;;;0.98;0.57;;;29.90;32.00;30.50;101477.00;;;;5022362;27;98481;-65
2022/08/08 10:06:53;;;;;;;1.77;0.73;;;30.00;31.30;30.40;101472.00;;;;5015212;27;116975;-65
2022/08/08 10:09:32;;;;;;;1.10;0.63;;;29.90;31.60;30.40;101476.00;;;;5015924;27;110537;-65
2022/08/08 10:12:01;;;;;;;0.60;0.45;;;29.90;31.50;30.50;101471.00;;;;5004221;27;87795;-65
2022/08/08 10:14:38;;;;;;;1.48;0.63;;;30.00;31.40;30.70;101473.00;;;;5000399;27;106475;-64
2022/08/08 10:17:06;;;;;;;0.90;0.50;;;30.10;30.90;30.70;101465.00;;;;5017475;27;87805;-64
2022/08/08 10:19:40;;;;;;;0.40;0.40;;;30.20;30.20;30.70;101465.00;;;;5016028;27;87593;-65
2022/08/08 10:22:07;;;;;;;1.67;0.47;;;30.20;30.40;30.90;101460.00;;;;4998784;27;88174;-65
2022/08/08 10:24:34;;;;;;;1.17;0.70;;;30.20;30.50;31.10;101466.00;;;;4997423;28;88202;-64
2022/08/08 10:27:05;;;;;;;0.88;0.65;;;30.40;30.20;31.20;101454.00;;;;4997080;28;110196;-65
2022/08/08 10:30:00;;;;;;;1.02;0.60;;;30.50;30.30;31.50;101462.00;;;;4998519;27;87879;-65
2022/08/08 10:32:31;;;;;;;0.63;0.55;;;30.70;30.30;31.60;101457.00;;;;5013986;27;87554;-65
2022/08/08 10:35:03;;;;;;;0.68;0.63;;;30.90;29.80;31.60;101461.00;;;;5016674;27;89721;-63
2022/08/08 10:37:34;;;;;;;1.15;0.40;;;30.90;29.80;31.60;101457.00;;;;4994375;28;89227;-65
2022/08/08 10:40:14;;;;;;;0.73;0.40;;;31.00;29.60;31.70;101464.00;;;;4997172;28;87755;-65
2022/08/08 10:42:41;;;;;;;1.25;0.57;;;31.00;29.80;31.70;101458.00;;;;5005160;27;88735;-64
2022/08/08 10:45:09;;;;;;;0.20;0.20;;;31.00;29.60;31.90;101462.00;;;;4998331;27;87799;-64
2022/08/08 10:47:36;;;;;;;2.90;0.80;;;31.10;29.80;32.10;101454.00;;;;4999613;27;88807;-63
2022/08/08 10:50:06;;;;;;;1.15;0.52;;;31.30;29.80;32.30;101448.00;;;;5017569;27;87779;-64
2022/08/08 10:52:38;;;;;;;1.27;0.40;;;31.50;29.20;32.30;101457.00;;;;4999277;27;86874;-64
2022/08/08 10:55:14;;;;;;;1.23;0.70;;;31.50;29.20;32.40;101448.00;;;;5014718;27;88085;-63
2022/08/08 10:57:46;;;;;;;0.40;0.40;;;31.60;29.30;32.60;101453.00;;;;5016583;27;88848;-65
2022/08/08 11:00:20;;;;;;;2.33;0.30;;;31.70;29.50;32.90;101439.00;;;;5015529;27;88673;-65
2022/08/08 11:02:45;;;;;;;0.50;0.50;;;32.00;29.40;33.30;101437.00;;;;4997521;27;87809;-65
2022/08/08 11:05:12;;;;;;;0.95;0.90;;;32.30;29.30;33.70;101441.00;;;;4994989;27;117826;-65
2022/08/08 11:07:46;;;;;;;0.85;0.57;;;32.70;29.20;34.10;101443.00;;;;4996529;28;88758;-65
2022/08/08 11:10:18;;;;;;;0.45;0.30;;;33.20;28.90;34.50;101441.00;;;;4996603;28;87711;-66
2022/08/08 11:12:50;;;;;;;1.48;0.50;;;33.60;28.40;34.70;101439.00;;;;5010441;27;87778;-64
2022/08/08 11:15:20;;;;;;;0.50;0.47;;;33.80;28.00;34.90;101440.00;;;;5016308;27;88324;-64
2022/08/08 11:17:48;;;;;;;0.88;0.63;;;34.00;28.00;35.00;101445.00;;;;5017022;27;88983;-64
2022/08/08 11:20:26;;;;;;;0.47;0.47;;;34.20;27.70;35.30;101444.00;;;;5016744;27;87634;-64
2022/08/08 11:22:58;;;;;;;0.93;0.43;;;34.40;27.70;35.50;101440.00;;;;5014881;27;88454;-64
2022/08/08 11:25:30;;;;;;;1.33;0.73;;;34.70;27.20;35.40;101446.00;;;;5015438;27;89074;-64
2022/08/08 11:27:58;;;;;;;1.25;0.82;;;34.60;27.00;35.50;101451.00;;;;5016331;27;88344;-65
2022/08/08 11:30:30;;;;;;;0.30;0.30;;;34.60;27.20;35.80;101441.00;;;;5015105;27;104093;-65
2022/08/08 11:33:01;;;;;;;2.47;0.98;;;34.90;27.30;36.10;101437.00;;;;5011432;27;88208;-65